Corpus Christi International Airport
KCRP : now visible

Airfield :











YOU CAN JOIN US ON...

 
LOGIN :

Register | Disclaimer

   EN    FR    IT 

 









Legend :    VFR   Marginal VFR   IFR   Intensive IFR   Very Intensive IFR
Visi :
Ceiling :
>= 8 km
>= 3000ft
5 to 8 km
1000 to 3000 ft
1500m to 5 km
500 to 1000 ft
800 to 1500m
200 to 500 ft
< 800m
< 200 ft
Symbols :   Thunderstorms  Fog  Heavy snow  Heavy precipitations  Wind > 20 kt






- Airport Elevation : 44 ft
- IATA code : CRP


KCRP - Corpus Christi International

CURRENT METAR :
  • 260451Z COR 14014G20KT 10SM BKN012 OVC250 28/26 A2974 RMK AO2 SLP070 T02780256 $

EXPIRED METARs :
  • 260427Z 14012KT 10SM BKN012 OVC250 28/26 A2974 RMK AO2 T02780256 $
  • 260351Z 14015G19KT 10SM SCT012 OVC250 28/26 A2974 RMK AO2 SLP069 T02780256 $
  • 260251Z 14015G19KT 10SM SCT012 BKN250 28/26 A2973 RMK AO2 SLP067 T02780256 53016 $
  • 260151Z 14017KT 10SM SCT013 SCT250 28/25 A2971 RMK AO2 SLP059 T02780250 $
  • 260051Z 15012G20KT 10SM FEW016 FEW250 29/25 A2970 RMK AO2 SLP055 T02890250 $

TAF KCRP
Valid from the 26 at 00:00 until the 27 at 00:00 UTC


252338Z 2600/2624 15016G25KT P6SM SCT025 BKN250
TEMPO 2603/2605 14014KT 3SM HZ OVC020
FM260500 14014KT P6SM OVC015
TEMPO 2612/2615 4SM BR HZ
FM261700 16015G22KT P6SM BKN035
KZHU FIR / North America



MET'MAP, your aeronautical weather chart ! - Copyright ORBIFLY December 2007 - Disclaimer

ORBIFLY MET'MAP TEAM :

Programming & Development : Alexandra Zaïnal
Original concept : Baudouin d'Aumeries
Technical & hardware support : Manuel Goepfert
Assistance : Marc-Olivier Méhu




SOURCES & CREDITS :

   NOAA       Earth
Advisory